Aviation Digital Data Service (ADDS)

Output produced by METARs form (2027 UTC 21 September 2021)
found at http://aviationweather.gov/metar/data/
 
METAR text: KCVH 212015Z AUTO 00000KT 10SM CLR 35/04 A3004 RMK A01
Conditions at: KCVH (HOLLISTER MUNI , CA, US) observed 2015 UTC 21 September 2021
Temperature: 35.0°C (95°F)
Dewpoint: 4.0°C (39°F) [RH = 14%]
Pressure (altimeter): 30.04 inches Hg (1017.4 mb)
Winds: calm
Visibility: 10 or more miles (16+ km)
Ceiling: at least 12,000 feet AGL
Clouds: sky clear below 12,000 feet AGL
Weather: automated observation with no human augmentation;
there may or may not be significant weather present at this time